sensor_id;sensor_type;location;lat;lon;timestamp;P1;durP1;ratioP1;P2;durP2;ratioP2
65477;SDS011;53678;39.642;22.430;2023-09-19T00:00:19;14.45;;;7.28;;
65477;SDS011;53678;39.642;22.430;2023-09-19T00:02:46;12.50;;;6.45;;
65477;SDS011;53678;39.642;22.430;2023-09-19T00:05:27;12.70;;;6.18;;
65477;SDS011;53678;39.642;22.430;2023-09-19T00:07:56;12.77;;;6.55;;
65477;SDS011;53678;39.642;22.430;2023-09-19T00:10:26;14.82;;;6.53;;
65477;SDS011;53678;39.642;22.430;2023-09-19T00:12:53;9.85;;;5.95;;
65477;SDS011;53678;39.642;22.430;2023-09-19T00:15:22;10.32;;;5.82;;
65477;SDS011;53678;39.642;22.430;2023-09-19T00:17:48;12.95;;;6.97;;
65477;SDS011;53678;39.642;22.430;2023-09-19T00:20:15;13.00;;;7.47;;
65477;SDS011;53678;39.642;22.430;2023-09-19T00:22:43;11.65;;;6.60;;
65477;SDS011;53678;39.642;22.430;2023-09-19T00:25:09;8.85;;;6.38;;
65477;SDS011;53678;39.642;22.430;2023-09-19T00:27:38;11.75;;;6.13;;
65477;SDS011;53678;39.642;22.430;2023-09-19T00:30:07;9.13;;;6.25;;
65477;SDS011;53678;39.642;22.430;2023-09-19T00:32:47;14.35;;;7.00;;
65477;SDS011;53678;39.642;22.430;2023-09-19T00:35:13;14.90;;;6.78;;
65477;SDS011;53678;39.642;22.430;2023-09-19T00:37:42;13.60;;;7.18;;
65477;SDS011;53678;39.642;22.430;2023-09-19T00:40:08;10.27;;;6.40;;
65477;SDS011;53678;39.642;22.430;2023-09-19T00:42:41;10.82;;;6.57;;
65477;SDS011;53678;39.642;22.430;2023-09-19T00:45:08;8.35;;;6.40;;
65477;SDS011;53678;39.642;22.430;2023-09-19T00:47:39;8.63;;;6.20;;
65477;SDS011;53678;39.642;22.430;2023-09-19T00:50:06;12.88;;;6.45;;
65477;SDS011;53678;39.642;22.430;2023-09-19T00:52:34;12.18;;;6.80;;
65477;SDS011;53678;39.642;22.430;2023-09-19T00:55:10;11.27;;;6.28;;
65477;SDS011;53678;39.642;22.430;2023-09-19T00:57:38;10.32;;;6.28;;
65477;SDS011;53678;39.642;22.430;2023-09-19T01:00:05;9.48;;;6.45;;
65477;SDS011;53678;39.642;22.430;2023-09-19T01:02:34;12.20;;;6.25;;
65477;SDS011;53678;39.642;22.430;2023-09-19T01:05:01;10.48;;;6.75;;
65477;SDS011;53678;39.642;22.430;2023-09-19T01:07:28;10.38;;;6.30;;
65477;SDS011;53678;39.642;22.430;2023-09-19T01:09:56;14.85;;;5.93;;
65477;SDS011;53678;39.642;22.430;2023-09-19T01:12:30;9.13;;;5.50;;
65477;SDS011;53678;39.642;22.430;2023-09-19T01:15:11;11.00;;;5.68;;
65477;SDS011;53678;39.642;22.430;2023-09-19T01:17:46;9.57;;;5.57;;
65477;SDS011;53678;39.642;22.430;2023-09-19T01:28:43;10.45;;;5.22;;
65477;SDS011;53678;39.642;22.430;2023-09-19T01:31:19;10.95;;;5.47;;
65477;SDS011;53678;39.642;22.430;2023-09-19T01:34:01;12.10;;;5.45;;
65477;SDS011;53678;39.642;22.430;2023-09-19T01:36:35;8.10;;;4.90;;
65477;SDS011;53678;39.642;22.430;2023-09-19T01:47:41;9.57;;;5.25;;
65477;SDS011;53678;39.642;22.430;2023-09-19T01:50:48;8.55;;;5.55;;
65477;SDS011;53678;39.642;22.430;2023-09-19T01:55:58;9.95;;;5.13;;
65477;SDS011;53678;39.642;22.430;2023-09-19T01:58:29;11.70;;;5.25;;
65477;SDS011;53678;39.642;22.430;2023-09-19T02:01:00;10.90;;;5.30;;
65477;SDS011;53678;39.642;22.430;2023-09-19T02:03:26;10.20;;;5.22;;
65477;SDS011;53678;39.642;22.430;2023-09-19T02:05:54;9.68;;;5.60;;
65477;SDS011;53678;39.642;22.430;2023-09-19T02:08:20;10.00;;;5.65;;
65477;SDS011;53678;39.642;22.430;2023-09-19T02:10:50;8.40;;;5.13;;
65477;SDS011;53678;39.642;22.430;2023-09-19T02:13:19;8.65;;;5.22;;
65477;SDS011;53678;39.642;22.430;2023-09-19T02:15:46;9.85;;;5.38;;
65477;SDS011;53678;39.642;22.430;2023-09-19T02:18:12;11.18;;;6.05;;
65477;SDS011;53678;39.642;22.430;2023-09-19T02:20:39;10.52;;;5.65;;
65477;SDS011;53678;39.642;22.430;2023-09-19T02:23:05;10.60;;;5.82;;
65477;SDS011;53678;39.642;22.430;2023-09-19T02:25:32;8.50;;;5.43;;
65477;SDS011;53678;39.642;22.430;2023-09-19T02:27:57;12.10;;;5.55;;
65477;SDS011;53678;39.642;22.430;2023-09-19T02:30:28;11.25;;;6.35;;
65477;SDS011;53678;39.642;22.430;2023-09-19T02:32:55;14.68;;;7.90;;
65477;SDS011;53678;39.642;22.430;2023-09-19T02:35:21;18.38;;;8.55;;
65477;SDS011;53678;39.642;22.430;2023-09-19T02:37:48;16.20;;;8.80;;
65477;SDS011;53678;39.642;22.430;2023-09-19T02:40:14;15.50;;;8.48;;
65477;SDS011;53678;39.642;22.430;2023-09-19T02:42:44;26.15;;;9.43;;
65477;SDS011;53678;39.642;22.430;2023-09-19T02:45:12;19.23;;;8.45;;
65477;SDS011;53678;39.642;22.430;2023-09-19T02:47:39;19.80;;;10.20;;
65477;SDS011;53678;39.642;22.430;2023-09-19T02:50:05;17.45;;;9.43;;
65477;SDS011;53678;39.642;22.430;2023-09-19T02:52:31;22.35;;;9.38;;
65477;SDS011;53678;39.642;22.430;2023-09-19T02:54:57;14.05;;;8.07;;
65477;SDS011;53678;39.642;22.430;2023-09-19T02:57:23;15.45;;;8.82;;
65477;SDS011;53678;39.642;22.430;2023-09-19T02:59:49;17.17;;;8.48;;
65477;SDS011;53678;39.642;22.430;2023-09-19T03:02:15;23.67;;;8.93;;
65477;SDS011;53678;39.642;22.430;2023-09-19T03:04:41;20.17;;;9.30;;
65477;SDS011;53678;39.642;22.430;2023-09-19T03:07:07;18.45;;;8.20;;
65477;SDS011;53678;39.642;22.430;2023-09-19T03:09:34;16.35;;;7.93;;
65477;SDS011;53678;39.642;22.430;2023-09-19T03:12:00;16.15;;;7.95;;
65477;SDS011;53678;39.642;22.430;2023-09-19T03:14:26;19.08;;;10.30;;
65477;SDS011;53678;39.642;22.430;2023-09-19T03:16:57;14.70;;;8.90;;
65477;SDS011;53678;39.642;22.430;2023-09-19T03:19:22;21.10;;;9.80;;
65477;SDS011;53678;39.642;22.430;2023-09-19T03:21:49;22.00;;;9.43;;
65477;SDS011;53678;39.642;22.430;2023-09-19T03:24:16;30.63;;;11.23;;
65477;SDS011;53678;39.642;22.430;2023-09-19T03:26:42;16.95;;;8.57;;
65477;SDS011;53678;39.642;22.430;2023-09-19T03:29:08;17.25;;;9.10;;
65477;SDS011;53678;39.642;22.430;2023-09-19T03:31:35;20.83;;;9.15;;
65477;SDS011;53678;39.642;22.430;2023-09-19T03:34:02;25.00;;;9.00;;
65477;SDS011;53678;39.642;22.430;2023-09-19T03:36:29;19.90;;;8.75;;
65477;SDS011;53678;39.642;22.430;2023-09-19T03:38:55;18.55;;;8.82;;
65477;SDS011;53678;39.642;22.430;2023-09-19T03:41:21;22.38;;;9.43;;
65477;SDS011;53678;39.642;22.430;2023-09-19T03:43:48;15.68;;;8.00;;
65477;SDS011;53678;39.642;22.430;2023-09-19T03:46:14;17.95;;;10.05;;
65477;SDS011;53678;39.642;22.430;2023-09-19T03:48:41;22.25;;;9.68;;
65477;SDS011;53678;39.642;22.430;2023-09-19T03:51:09;19.10;;;9.40;;
65477;SDS011;53678;39.642;22.430;2023-09-19T03:53:36;19.30;;;9.85;;
65477;SDS011;53678;39.642;22.430;2023-09-19T03:56:01;31.15;;;11.05;;
65477;SDS011;53678;39.642;22.430;2023-09-19T03:58:32;27.85;;;10.70;;
65477;SDS011;53678;39.642;22.430;2023-09-19T04:00:59;27.08;;;10.90;;
65477;SDS011;53678;39.642;22.430;2023-09-19T04:03:27;25.05;;;9.73;;
65477;SDS011;53678;39.642;22.430;2023-09-19T04:06:00;25.27;;;9.95;;
65477;SDS011;53678;39.642;22.430;2023-09-19T04:08:26;18.40;;;9.00;;
65477;SDS011;53678;39.642;22.430;2023-09-19T04:10:52;24.95;;;9.65;;
65477;SDS011;53678;39.642;22.430;2023-09-19T04:13:18;19.80;;;9.82;;
65477;SDS011;53678;39.642;22.430;2023-09-19T04:15:44;24.88;;;9.38;;
65477;SDS011;53678;39.642;22.430;2023-09-19T04:18:11;23.55;;;10.38;;
65477;SDS011;53678;39.642;22.430;2023-09-19T04:20:37;34.33;;;10.73;;
65477;SDS011;53678;39.642;22.430;2023-09-19T04:23:03;28.30;;;10.13;;
65477;SDS011;53678;39.642;22.430;2023-09-19T04:25:31;23.90;;;8.82;;
65477;SDS011;53678;39.642;22.430;2023-09-19T04:27:58;23.02;;;8.30;;
65477;SDS011;53678;39.642;22.430;2023-09-19T04:30:25;22.98;;;8.63;;
65477;SDS011;53678;39.642;22.430;2023-09-19T04:32:50;30.45;;;10.43;;
65477;SDS011;53678;39.642;22.430;2023-09-19T04:35:16;23.25;;;9.07;;
65477;SDS011;53678;39.642;22.430;2023-09-19T04:37:42;15.60;;;7.97;;
65477;SDS011;53678;39.642;22.430;2023-09-19T04:40:08;17.70;;;8.90;;
65477;SDS011;53678;39.642;22.430;2023-09-19T04:42:43;20.58;;;8.30;;
65477;SDS011;53678;39.642;22.430;2023-09-19T04:45:09;20.42;;;8.52;;
65477;SDS011;53678;39.642;22.430;2023-09-19T04:47:36;23.05;;;8.65;;
65477;SDS011;53678;39.642;22.430;2023-09-19T04:50:07;34.53;;;10.05;;
65477;SDS011;53678;39.642;22.430;2023-09-19T04:55:13;34.80;;;11.68;;
65477;SDS011;53678;39.642;22.430;2023-09-19T04:57:42;29.17;;;11.23;;
65477;SDS011;53678;39.642;22.430;2023-09-19T05:00:20;17.67;;;10.45;;
65477;SDS011;53678;39.642;22.430;2023-09-19T05:02:50;15.45;;;9.43;;
65477;SDS011;53678;39.642;22.430;2023-09-19T05:05:17;17.05;;;8.85;;
65477;SDS011;53678;39.642;22.430;2023-09-19T05:07:45;21.83;;;9.63;;
65477;SDS011;53678;39.642;22.430;2023-09-19T05:10:12;33.45;;;11.10;;
65477;SDS011;53678;39.642;22.430;2023-09-19T05:12:38;22.42;;;10.00;;
65477;SDS011;53678;39.642;22.430;2023-09-19T05:15:05;24.02;;;9.60;;
65477;SDS011;53678;39.642;22.430;2023-09-19T05:17:35;24.88;;;9.10;;
65477;SDS011;53678;39.642;22.430;2023-09-19T05:20:01;23.13;;;8.35;;
65477;SDS011;53678;39.642;22.430;2023-09-19T05:22:40;22.20;;;10.13;;
65477;SDS011;53678;39.642;22.430;2023-09-19T05:25:08;20.10;;;9.18;;
65477;SDS011;53678;39.642;22.430;2023-09-19T05:27:36;22.48;;;9.18;;
65477;SDS011;53678;39.642;22.430;2023-09-19T05:30:01;20.75;;;9.65;;
65477;SDS011;53678;39.642;22.430;2023-09-19T05:32:28;35.42;;;12.77;;
65477;SDS011;53678;39.642;22.430;2023-09-19T05:34:53;17.70;;;9.43;;
65477;SDS011;53678;39.642;22.430;2023-09-19T05:37:21;29.10;;;10.50;;
65477;SDS011;53678;39.642;22.430;2023-09-19T05:39:48;28.23;;;9.95;;
65477;SDS011;53678;39.642;22.430;2023-09-19T05:42:14;17.05;;;9.00;;
65477;SDS011;53678;39.642;22.430;2023-09-19T05:44:40;34.25;;;9.82;;
65477;SDS011;53678;39.642;22.430;2023-09-19T05:47:06;18.75;;;8.75;;
65477;SDS011;53678;39.642;22.430;2023-09-19T05:49:35;15.70;;;9.02;;
65477;SDS011;53678;39.642;22.430;2023-09-19T05:52:05;13.85;;;8.18;;
65477;SDS011;53678;39.642;22.430;2023-09-19T05:54:31;15.38;;;8.30;;
65477;SDS011;53678;39.642;22.430;2023-09-19T05:56:58;14.05;;;7.53;;
65477;SDS011;53678;39.642;22.430;2023-09-19T05:59:24;12.88;;;7.32;;
65477;SDS011;53678;39.642;22.430;2023-09-19T06:01:50;14.57;;;7.85;;
65477;SDS011;53678;39.642;22.430;2023-09-19T06:04:17;11.05;;;7.28;;
65477;SDS011;53678;39.642;22.430;2023-09-19T06:06:44;11.98;;;7.55;;
65477;SDS011;53678;39.642;22.430;2023-09-19T06:09:10;17.45;;;7.70;;
65477;SDS011;53678;39.642;22.430;2023-09-19T06:11:36;11.05;;;7.47;;
65477;SDS011;53678;39.642;22.430;2023-09-19T06:14:02;12.40;;;7.05;;
65477;SDS011;53678;39.642;22.430;2023-09-19T06:16:29;12.07;;;7.57;;
65477;SDS011;53678;39.642;22.430;2023-09-19T06:18:57;19.77;;;7.70;;
65477;SDS011;53678;39.642;22.430;2023-09-19T06:21:25;11.05;;;6.93;;
65477;SDS011;53678;39.642;22.430;2023-09-19T06:23:52;17.58;;;7.75;;
65477;SDS011;53678;39.642;22.430;2023-09-19T06:26:18;18.67;;;9.57;;
65477;SDS011;53678;39.642;22.430;2023-09-19T06:28:44;13.95;;;7.78;;
65477;SDS011;53678;39.642;22.430;2023-09-19T06:31:10;12.32;;;7.90;;
65477;SDS011;53678;39.642;22.430;2023-09-19T06:33:36;17.35;;;8.32;;
65477;SDS011;53678;39.642;22.430;2023-09-19T06:36:06;16.15;;;8.75;;
65477;SDS011;53678;39.642;22.430;2023-09-19T06:38:32;12.02;;;8.18;;
65477;SDS011;53678;39.642;22.430;2023-09-19T06:41:01;20.02;;;7.75;;
65477;SDS011;53678;39.642;22.430;2023-09-19T06:43:30;13.23;;;8.38;;
65477;SDS011;53678;39.642;22.430;2023-09-19T06:45:56;15.00;;;7.50;;
65477;SDS011;53678;39.642;22.430;2023-09-19T06:48:22;10.15;;;6.72;;
65477;SDS011;53678;39.642;22.430;2023-09-19T06:50:50;14.20;;;7.00;;
65477;SDS011;53678;39.642;22.430;2023-09-19T06:53:18;15.02;;;6.88;;
65477;SDS011;53678;39.642;22.430;2023-09-19T06:55:43;13.75;;;8.02;;
65477;SDS011;53678;39.642;22.430;2023-09-19T06:58:10;15.40;;;6.90;;
65477;SDS011;53678;39.642;22.430;2023-09-19T07:00:36;14.32;;;6.47;;
65477;SDS011;53678;39.642;22.430;2023-09-19T07:03:04;11.10;;;6.63;;
65477;SDS011;53678;39.642;22.430;2023-09-19T07:05:33;11.88;;;6.28;;
65477;SDS011;53678;39.642;22.430;2023-09-19T07:08:02;12.75;;;5.90;;
65477;SDS011;53678;39.642;22.430;2023-09-19T07:10:29;9.20;;;5.50;;
65477;SDS011;53678;39.642;22.430;2023-09-19T07:15:28;12.18;;;5.38;;
65477;SDS011;53678;39.642;22.430;2023-09-19T07:17:56;17.92;;;6.50;;
65477;SDS011;53678;39.642;22.430;2023-09-19T07:20:23;10.63;;;6.20;;
65477;SDS011;53678;39.642;22.430;2023-09-19T07:22:56;10.38;;;5.22;;
65477;SDS011;53678;39.642;22.430;2023-09-19T07:25:25;10.48;;;5.85;;
65477;SDS011;53678;39.642;22.430;2023-09-19T07:27:51;8.77;;;5.18;;
65477;SDS011;53678;39.642;22.430;2023-09-19T07:30:17;11.98;;;5.57;;
65477;SDS011;53678;39.642;22.430;2023-09-19T07:32:43;9.43;;;4.72;;
65477;SDS011;53678;39.642;22.430;2023-09-19T07:35:08;11.00;;;5.20;;
65477;SDS011;53678;39.642;22.430;2023-09-19T07:37:34;12.07;;;5.00;;
65477;SDS011;53678;39.642;22.430;2023-09-19T07:40:04;8.13;;;4.18;;
65477;SDS011;53678;39.642;22.430;2023-09-19T07:42:37;10.77;;;4.38;;
65477;SDS011;53678;39.642;22.430;2023-09-19T07:45:09;9.60;;;4.65;;
65477;SDS011;53678;39.642;22.430;2023-09-19T07:47:43;9.60;;;4.65;;
65477;SDS011;53678;39.642;22.430;2023-09-19T07:50:10;17.10;;;5.07;;
65477;SDS011;53678;39.642;22.430;2023-09-19T07:52:36;8.32;;;3.63;;
65477;SDS011;53678;39.642;22.430;2023-09-19T07:55:05;13.85;;;4.88;;
65477;SDS011;53678;39.642;22.430;2023-09-19T07:57:35;6.32;;;3.95;;
65477;SDS011;53678;39.642;22.430;2023-09-19T08:00:02;10.70;;;3.72;;
65477;SDS011;53678;39.642;22.430;2023-09-19T08:02:37;8.82;;;4.07;;
65477;SDS011;53678;39.642;22.430;2023-09-19T08:05:05;8.02;;;4.07;;
65477;SDS011;53678;39.642;22.430;2023-09-19T08:07:38;8.45;;;3.78;;
65477;SDS011;53678;39.642;22.430;2023-09-19T08:10:05;6.88;;;4.28;;
65477;SDS011;53678;39.642;22.430;2023-09-19T08:12:44;11.23;;;5.10;;
65477;SDS011;53678;39.642;22.430;2023-09-19T08:15:12;15.60;;;4.40;;
65477;SDS011;53678;39.642;22.430;2023-09-19T08:17:39;6.72;;;3.55;;
65477;SDS011;53678;39.642;22.430;2023-09-19T08:20:06;8.50;;;4.07;;
65477;SDS011;53678;39.642;22.430;2023-09-19T08:22:33;7.82;;;4.30;;
65477;SDS011;53678;39.642;22.430;2023-09-19T08:25:00;7.30;;;3.83;;
65477;SDS011;53678;39.642;22.430;2023-09-19T08:27:30;8.05;;;3.53;;
65477;SDS011;53678;39.642;22.430;2023-09-19T08:29:56;8.93;;;4.03;;
65477;SDS011;53678;39.642;22.430;2023-09-19T08:32:22;9.02;;;4.53;;
65477;SDS011;53678;39.642;22.430;2023-09-19T08:34:49;7.57;;;3.30;;
65477;SDS011;53678;39.642;22.430;2023-09-19T08:37:15;8.15;;;4.35;;
65477;SDS011;53678;39.642;22.430;2023-09-19T08:39:43;9.48;;;4.47;;
65477;SDS011;53678;39.642;22.430;2023-09-19T08:42:09;7.32;;;4.13;;
65477;SDS011;53678;39.642;22.430;2023-09-19T08:44:37;7.70;;;4.30;;
65477;SDS011;53678;39.642;22.430;2023-09-19T08:47:09;6.95;;;4.28;;
65477;SDS011;53678;39.642;22.430;2023-09-19T08:52:28;13.30;;;5.67;;
65477;SDS011;53678;39.642;22.430;2023-09-19T08:55:02;7.20;;;4.10;;
65477;SDS011;53678;39.642;22.430;2023-09-19T08:57:35;8.55;;;4.13;;
65477;SDS011;53678;39.642;22.430;2023-09-19T09:00:07;8.02;;;4.03;;
65477;SDS011;53678;39.642;22.430;2023-09-19T09:02:37;7.28;;;4.40;;
65477;SDS011;53678;39.642;22.430;2023-09-19T09:05:10;6.78;;;4.00;;
65477;SDS011;53678;39.642;22.430;2023-09-19T09:07:40;12.85;;;4.95;;
65477;SDS011;53678;39.642;22.430;2023-09-19T09:10:06;8.32;;;4.60;;
65477;SDS011;53678;39.642;22.430;2023-09-19T09:12:34;8.60;;;4.68;;
65477;SDS011;53678;39.642;22.430;2023-09-19T09:15:06;7.80;;;3.88;;
65477;SDS011;53678;39.642;22.430;2023-09-19T09:17:34;7.47;;;4.28;;
65477;SDS011;53678;39.642;22.430;2023-09-19T09:20:00;8.82;;;4.55;;
65477;SDS011;53678;39.642;22.430;2023-09-19T09:22:25;7.63;;;4.00;;
65477;SDS011;53678;39.642;22.430;2023-09-19T09:24:52;11.27;;;4.70;;
65477;SDS011;53678;39.642;22.430;2023-09-19T09:27:19;8.25;;;3.95;;
65477;SDS011;53678;39.642;22.430;2023-09-19T09:32:27;11.00;;;5.20;;
65477;SDS011;53678;39.642;22.430;2023-09-19T09:34:55;10.13;;;5.18;;
65477;SDS011;53678;39.642;22.430;2023-09-19T09:37:22;12.02;;;5.80;;
65477;SDS011;53678;39.642;22.430;2023-09-19T09:39:53;9.32;;;4.45;;
65477;SDS011;53678;39.642;22.430;2023-09-19T09:42:38;12.90;;;4.72;;
65477;SDS011;53678;39.642;22.430;2023-09-19T09:45:12;8.15;;;4.57;;
65477;SDS011;53678;39.642;22.430;2023-09-19T09:47:47;8.75;;;4.82;;
65477;SDS011;53678;39.642;22.430;2023-09-19T09:50:33;9.23;;;4.97;;
65477;SDS011;53678;39.642;22.430;2023-09-19T09:53:24;8.68;;;4.72;;
65477;SDS011;53678;39.642;22.430;2023-09-19T09:56:04;7.82;;;4.22;;
65477;SDS011;53678;39.642;22.430;2023-09-19T09:58:35;15.73;;;5.72;;
65477;SDS011;53678;39.642;22.430;2023-09-19T10:01:13;8.43;;;4.85;;
65477;SDS011;53678;39.642;22.430;2023-09-19T10:03:40;11.48;;;5.28;;
65477;SDS011;53678;39.642;22.430;2023-09-19T10:06:13;10.38;;;4.72;;
65477;SDS011;53678;39.642;22.430;2023-09-19T10:09:05;10.60;;;5.03;;
65477;SDS011;53678;39.642;22.430;2023-09-19T10:11:40;10.38;;;6.03;;
65477;SDS011;53678;39.642;22.430;2023-09-19T10:14:11;9.65;;;5.18;;
65477;SDS011;53678;39.642;22.430;2023-09-19T10:16:40;10.35;;;4.95;;
65477;SDS011;53678;39.642;22.430;2023-09-19T10:19:10;15.95;;;5.57;;
65477;SDS011;53678;39.642;22.430;2023-09-19T10:21:43;9.82;;;4.93;;
65477;SDS011;53678;39.642;22.430;2023-09-19T10:24:10;10.63;;;5.13;;
65477;SDS011;53678;39.642;22.430;2023-09-19T10:26:36;8.98;;;5.65;;
65477;SDS011;53678;39.642;22.430;2023-09-19T10:29:05;10.07;;;4.85;;
65477;SDS011;53678;39.642;22.430;2023-09-19T10:31:32;12.65;;;5.07;;
65477;SDS011;53678;39.642;22.430;2023-09-19T10:34:04;11.63;;;5.68;;
65477;SDS011;53678;39.642;22.430;2023-09-19T10:36:34;9.00;;;5.13;;
65477;SDS011;53678;39.642;22.430;2023-09-19T10:39:01;10.32;;;5.50;;
65477;SDS011;53678;39.642;22.430;2023-09-19T10:41:32;9.63;;;4.78;;
65477;SDS011;53678;39.642;22.430;2023-09-19T10:44:03;7.53;;;5.20;;
65477;SDS011;53678;39.642;22.430;2023-09-19T10:46:32;10.63;;;5.05;;
65477;SDS011;53678;39.642;22.430;2023-09-19T10:48:59;7.95;;;5.22;;
65477;SDS011;53678;39.642;22.430;2023-09-19T10:51:26;8.52;;;5.07;;
65477;SDS011;53678;39.642;22.430;2023-09-19T10:53:59;6.72;;;4.60;;
65477;SDS011;53678;39.642;22.430;2023-09-19T10:56:33;12.68;;;5.80;;
65477;SDS011;53678;39.642;22.430;2023-09-19T10:59:16;7.00;;;5.03;;
65477;SDS011;53678;39.642;22.430;2023-09-19T11:04:28;14.57;;;5.18;;
65477;SDS011;53678;39.642;22.430;2023-09-19T11:12:36;11.02;;;4.65;;
65477;SDS011;53678;39.642;22.430;2023-09-19T11:15:03;10.35;;;5.53;;
65477;SDS011;53678;39.642;22.430;2023-09-19T11:17:39;12.25;;;4.60;;
65477;SDS011;53678;39.642;22.430;2023-09-19T11:30:43;10.48;;;4.80;;
65477;SDS011;53678;39.642;22.430;2023-09-19T11:33:26;8.30;;;5.07;;
65477;SDS011;53678;39.642;22.430;2023-09-19T11:36:02;11.93;;;5.85;;
65477;SDS011;53678;39.642;22.430;2023-09-19T11:46:30;10.45;;;4.90;;
65477;SDS011;53678;39.642;22.430;2023-09-19T11:49:07;10.45;;;5.55;;
65477;SDS011;53678;39.642;22.430;2023-09-19T11:51:41;9.23;;;4.40;;
65477;SDS011;53678;39.642;22.430;2023-09-19T11:54:12;12.85;;;4.85;;
65477;SDS011;53678;39.642;22.430;2023-09-19T11:56:50;11.27;;;4.60;;
65477;SDS011;53678;39.642;22.430;2023-09-19T11:59:22;9.50;;;4.78;;
65477;SDS011;53678;39.642;22.430;2023-09-19T12:01:52;6.32;;;4.70;;
65477;SDS011;53678;39.642;22.430;2023-09-19T12:04:34;6.75;;;4.63;;
65477;SDS011;53678;39.642;22.430;2023-09-19T12:07:06;10.70;;;5.00;;
65477;SDS011;53678;39.642;22.430;2023-09-19T12:09:46;6.80;;;4.35;;
65477;SDS011;53678;39.642;22.430;2023-09-19T12:12:23;7.07;;;4.88;;
65477;SDS011;53678;39.642;22.430;2023-09-19T12:14:53;14.75;;;5.20;;
65477;SDS011;53678;39.642;22.430;2023-09-19T12:17:20;12.18;;;5.75;;
65477;SDS011;53678;39.642;22.430;2023-09-19T12:19:50;9.15;;;5.40;;
65477;SDS011;53678;39.642;22.430;2023-09-19T12:22:19;11.50;;;4.90;;
65477;SDS011;53678;39.642;22.430;2023-09-19T12:24:48;10.00;;;5.10;;
65477;SDS011;53678;39.642;22.430;2023-09-19T12:27:15;6.60;;;4.45;;
65477;SDS011;53678;39.642;22.430;2023-09-19T12:29:49;8.00;;;5.30;;
65477;SDS011;53678;39.642;22.430;2023-09-19T12:34:51;7.35;;;4.88;;
65477;SDS011;53678;39.642;22.430;2023-09-19T12:37:18;9.27;;;4.93;;
65477;SDS011;53678;39.642;22.430;2023-09-19T12:39:49;10.68;;;5.25;;
65477;SDS011;53678;39.642;22.430;2023-09-19T12:42:17;9.45;;;5.22;;
65477;SDS011;53678;39.642;22.430;2023-09-19T12:44:45;12.55;;;5.22;;
65477;SDS011;53678;39.642;22.430;2023-09-19T12:47:13;11.57;;;5.10;;
65477;SDS011;53678;39.642;22.430;2023-09-19T12:52:43;9.48;;;4.90;;
65477;SDS011;53678;39.642;22.430;2023-09-19T12:55:29;11.65;;;4.80;;
65477;SDS011;53678;39.642;22.430;2023-09-19T12:58:14;8.18;;;4.40;;
65477;SDS011;53678;39.642;22.430;2023-09-19T13:00:45;9.52;;;4.70;;
65477;SDS011;53678;39.642;22.430;2023-09-19T13:06:00;12.05;;;5.72;;
65477;SDS011;53678;39.642;22.430;2023-09-19T13:08:32;12.80;;;5.47;;
65477;SDS011;53678;39.642;22.430;2023-09-19T13:11:16;12.48;;;5.45;;
65477;SDS011;53678;39.642;22.430;2023-09-19T13:22:51;12.30;;;5.25;;
65477;SDS011;53678;39.642;22.430;2023-09-19T13:25:15;8.80;;;5.30;;
65477;SDS011;53678;39.642;22.430;2023-09-19T13:27:47;10.18;;;5.35;;
65477;SDS011;53678;39.642;22.430;2023-09-19T13:30:17;9.95;;;4.97;;
65477;SDS011;53678;39.642;22.430;2023-09-19T13:32:43;7.90;;;4.53;;
65477;SDS011;53678;39.642;22.430;2023-09-19T13:35:10;8.70;;;4.82;;
65477;SDS011;53678;39.642;22.430;2023-09-19T13:37:40;8.63;;;5.03;;
65477;SDS011;53678;39.642;22.430;2023-09-19T13:40:08;7.18;;;5.18;;
65477;SDS011;53678;39.642;22.430;2023-09-19T13:42:38;6.55;;;4.45;;
65477;SDS011;53678;39.642;22.430;2023-09-19T13:45:05;8.10;;;4.80;;
65477;SDS011;53678;39.642;22.430;2023-09-19T13:47:32;7.28;;;4.88;;
65477;SDS011;53678;39.642;22.430;2023-09-19T13:49:58;9.65;;;4.68;;
65477;SDS011;53678;39.642;22.430;2023-09-19T13:52:24;12.52;;;4.97;;
65477;SDS011;53678;39.642;22.430;2023-09-19T13:54:53;11.88;;;5.07;;
65477;SDS011;53678;39.642;22.430;2023-09-19T13:57:22;6.40;;;4.72;;
65477;SDS011;53678;39.642;22.430;2023-09-19T13:59:49;10.57;;;4.85;;
65477;SDS011;53678;39.642;22.430;2023-09-19T14:02:15;12.02;;;5.00;;
65477;SDS011;53678;39.642;22.430;2023-09-19T14:04:43;8.65;;;5.30;;
65477;SDS011;53678;39.642;22.430;2023-09-19T14:07:09;12.65;;;5.45;;
65477;SDS011;53678;39.642;22.430;2023-09-19T14:09:36;12.55;;;5.13;;
65477;SDS011;53678;39.642;22.430;2023-09-19T14:12:02;11.15;;;5.88;;
65477;SDS011;53678;39.642;22.430;2023-09-19T14:14:28;9.52;;;4.88;;
65477;SDS011;53678;39.642;22.430;2023-09-19T14:16:54;11.48;;;6.05;;
65477;SDS011;53678;39.642;22.430;2023-09-19T14:19:20;7.45;;;4.68;;
65477;SDS011;53678;39.642;22.430;2023-09-19T14:21:46;8.52;;;5.03;;
65477;SDS011;53678;39.642;22.430;2023-09-19T14:24:18;8.55;;;4.68;;
65477;SDS011;53678;39.642;22.430;2023-09-19T14:26:45;6.75;;;4.80;;
65477;SDS011;53678;39.642;22.430;2023-09-19T14:29:11;10.63;;;5.13;;
65477;SDS011;53678;39.642;22.430;2023-09-19T14:31:37;8.95;;;5.25;;
65477;SDS011;53678;39.642;22.430;2023-09-19T14:34:05;9.50;;;5.45;;
65477;SDS011;53678;39.642;22.430;2023-09-19T14:36:32;12.25;;;5.22;;
65477;SDS011;53678;39.642;22.430;2023-09-19T14:39:01;9.45;;;5.13;;
65477;SDS011;53678;39.642;22.430;2023-09-19T14:41:27;7.95;;;4.95;;
65477;SDS011;53678;39.642;22.430;2023-09-19T14:43:54;9.55;;;5.00;;
65477;SDS011;53678;39.642;22.430;2023-09-19T14:46:23;9.07;;;5.32;;
65477;SDS011;53678;39.642;22.430;2023-09-19T14:48:52;8.85;;;5.00;;
65477;SDS011;53678;39.642;22.430;2023-09-19T14:51:18;7.10;;;5.38;;
65477;SDS011;53678;39.642;22.430;2023-09-19T14:53:44;9.32;;;5.25;;
65477;SDS011;53678;39.642;22.430;2023-09-19T14:56:12;12.43;;;5.55;;
65477;SDS011;53678;39.642;22.430;2023-09-19T14:58:41;7.72;;;5.22;;
65477;SDS011;53678;39.642;22.430;2023-09-19T15:03:37;7.35;;;5.30;;
65477;SDS011;53678;39.642;22.430;2023-09-19T15:06:09;11.30;;;5.35;;
65477;SDS011;53678;39.642;22.430;2023-09-19T15:08:41;9.43;;;5.50;;
65477;SDS011;53678;39.642;22.430;2023-09-19T15:11:12;5.88;;;4.60;;
65477;SDS011;53678;39.642;22.430;2023-09-19T15:13:41;8.73;;;5.40;;
65477;SDS011;53678;39.642;22.430;2023-09-19T15:16:09;10.90;;;5.93;;
65477;SDS011;53678;39.642;22.430;2023-09-19T15:18:41;12.32;;;5.57;;
65477;SDS011;53678;39.642;22.430;2023-09-19T15:21:11;12.23;;;5.30;;
65477;SDS011;53678;39.642;22.430;2023-09-19T15:23:39;8.13;;;5.07;;
65477;SDS011;53678;39.642;22.430;2023-09-19T15:26:07;9.98;;;5.68;;
65477;SDS011;53678;39.642;22.430;2023-09-19T15:28:47;8.27;;;5.60;;
65477;SDS011;53678;39.642;22.430;2023-09-19T15:31:13;8.07;;;4.65;;
65477;SDS011;53678;39.642;22.430;2023-09-19T15:33:39;10.15;;;5.15;;
65477;SDS011;53678;39.642;22.430;2023-09-19T15:36:15;9.90;;;4.72;;
65477;SDS011;53678;39.642;22.430;2023-09-19T15:41:29;6.97;;;4.45;;
65477;SDS011;53678;39.642;22.430;2023-09-19T15:43:56;10.27;;;4.30;;
65477;SDS011;53678;39.642;22.430;2023-09-19T15:46:22;7.70;;;4.50;;
65477;SDS011;53678;39.642;22.430;2023-09-19T15:48:48;6.60;;;4.25;;
65477;SDS011;53678;39.642;22.430;2023-09-19T15:51:15;6.95;;;4.90;;
65477;SDS011;53678;39.642;22.430;2023-09-19T15:53:45;9.75;;;4.85;;
65477;SDS011;53678;39.642;22.430;2023-09-19T15:56:12;10.25;;;4.78;;